createdAt,value
2017-08-12T00:01:47.598Z,100429.08
2017-08-12T00:04:15.503Z,100433.25
2017-08-12T00:06:44.163Z,100432.89
2017-08-12T00:09:12.142Z,100441.14
2017-08-12T00:11:40.034Z,100450.89
2017-08-12T00:14:08.348Z,100459.00
2017-08-12T00:16:36.246Z,100461.68
2017-08-12T00:19:04.332Z,100472.83
2017-08-12T00:21:32.240Z,100472.12
2017-08-12T00:24:00.130Z,100473.48
2017-08-12T00:26:28.053Z,100475.24
2017-08-12T00:28:56.344Z,100476.73
2017-08-12T00:31:24.656Z,100482.04
2017-08-12T00:33:52.568Z,100485.52
2017-08-12T00:36:20.470Z,100478.80
2017-08-12T00:38:48.366Z,100490.99
2017-08-12T00:41:16.288Z,100495.02
2017-08-12T00:43:44.586Z,100491.02
2017-08-12T00:46:12.709Z,100490.84
2017-08-12T00:48:40.615Z,100484.97
2017-08-12T00:51:08.912Z,100484.11
2017-08-12T00:53:36.818Z,100474.90
2017-08-12T00:56:04.757Z,100470.08
2017-08-12T00:58:32.657Z,100458.89
2017-08-12T01:01:01.563Z,100449.45
2017-08-12T01:03:29.470Z,100440.67
2017-08-12T01:05:57.623Z,100438.96
2017-08-12T01:08:25.531Z,100438.19
2017-08-12T01:10:53.436Z,100438.31
2017-08-12T01:13:21.606Z,100445.30
2017-08-12T01:15:49.508Z,100444.44
2017-08-12T01:18:17.960Z,100447.05
2017-08-12T01:20:45.880Z,100449.69
2017-08-12T01:23:13.779Z,100456.38
2017-08-12T01:25:41.685Z,100443.47
2017-08-12T01:28:09.997Z,100448.45
2017-08-12T01:30:37.895Z,100437.59
2017-08-12T01:33:05.808Z,100441.63
2017-08-12T01:35:34.407Z,100434.71
2017-08-12T01:38:02.298Z,100437.44
2017-08-12T01:40:30.216Z,100431.77
2017-08-12T01:42:58.111Z,100429.09
2017-08-12T01:45:26.148Z,100429.81
2017-08-12T01:47:54.051Z,100436.92
2017-08-12T01:50:21.946Z,100441.36
2017-08-12T01:52:49.864Z,100447.56
2017-08-12T01:55:17.763Z,100452.31
2017-08-12T01:57:45.675Z,100460.67
2017-08-12T02:00:13.575Z,100454.94
2017-08-12T02:02:41.877Z,100453.27
2017-08-12T02:05:09.779Z,100463.20
2017-08-12T02:07:37.696Z,100456.51
2017-08-12T02:10:06.000Z,100454.36
2017-08-12T02:12:33.911Z,100450.39
2017-08-12T02:15:01.840Z,100457.11
2017-08-12T02:17:29.969Z,100455.44
2017-08-12T02:19:57.933Z,100458.83
2017-08-12T02:22:25.829Z,100443.13
2017-08-12T02:24:54.181Z,100436.05
2017-08-12T02:27:22.390Z,100438.75
2017-08-12T02:29:50.378Z,100437.47
2017-08-12T02:32:18.290Z,100436.24
2017-08-12T02:34:46.190Z,100433.22
2017-08-12T02:37:14.500Z,100429.24
2017-08-12T02:39:42.417Z,100434.52
2017-08-12T02:42:10.316Z,100422.69
2017-08-12T02:44:38.240Z,100423.58
2017-08-12T02:47:06.140Z,100419.22
2017-08-12T02:49:34.801Z,100420.00
2017-08-12T02:52:02.702Z,100419.59
2017-08-12T02:54:30.602Z,100399.92
2017-08-12T02:56:58.520Z,100397.20
2017-08-12T02:59:26.424Z,100405.58
2017-08-12T03:01:54.334Z,100399.45
2017-08-12T03:04:22.230Z,100400.61
2017-08-12T03:06:50.539Z,100404.38
2017-08-12T03:09:18.444Z,100407.91
2017-08-12T03:11:46.347Z,100411.45
2017-08-12T03:14:14.942Z,100422.52
2017-08-12T03:16:42.965Z,100414.96
2017-08-12T03:19:10.879Z,100416.22
2017-08-12T03:21:39.174Z,100412.28
2017-08-12T03:24:07.094Z,100415.36
2017-08-12T03:26:35.000Z,100419.75
2017-08-12T03:29:03.303Z,100425.01
2017-08-12T03:31:31.208Z,100423.70
2017-08-12T03:33:59.115Z,100428.95
2017-08-12T03:36:27.010Z,100428.53
2017-08-12T03:38:55.111Z,100438.25
2017-08-12T03:41:23.002Z,100432.97
2017-08-12T03:43:51.311Z,100439.19
2017-08-12T03:46:19.223Z,100438.34
2017-08-12T03:48:47.118Z,100446.20
2017-08-12T03:51:15.432Z,100448.45
2017-08-12T03:53:43.340Z,100451.56
2017-08-12T03:56:11.238Z,100453.31
2017-08-12T03:58:39.552Z,100449.81
2017-08-12T04:01:07.483Z,100453.73
2017-08-12T04:03:35.775Z,100449.44
2017-08-12T04:06:04.092Z,100451.69
2017-08-12T04:08:31.996Z,100453.84
2017-08-12T04:11:00.159Z,100453.02
2017-08-12T04:13:28.054Z,100451.69
2017-08-12T04:15:56.361Z,100459.17
2017-08-12T04:18:24.277Z,100459.62
2017-08-12T04:20:52.170Z,100457.98
2017-08-12T04:23:20.493Z,100459.75
2017-08-12T04:25:48.391Z,100465.08
2017-08-12T04:28:16.299Z,100460.63
2017-08-12T04:30:44.199Z,100455.35
2017-08-12T04:33:12.444Z,100459.84
2017-08-12T04:35:40.343Z,100455.00
2017-08-12T04:38:08.265Z,100461.08
2017-08-12T04:40:36.558Z,100459.39
2017-08-12T04:43:04.454Z,100451.56
2017-08-12T04:45:32.366Z,100449.45
2017-08-12T04:48:00.272Z,100449.80
2017-08-12T04:50:28.183Z,100456.42
2017-08-12T04:52:56.081Z,100454.23
2017-08-12T04:55:24.401Z,100451.52
2017-08-12T04:57:52.316Z,100458.11
2017-08-12T05:00:20.735Z,100455.39
2017-08-12T05:02:48.639Z,100459.82
2017-08-12T05:05:16.550Z,100456.33
2017-08-12T05:07:44.857Z,100460.20
2017-08-12T05:10:12.779Z,100461.14
2017-08-12T05:12:40.697Z,100454.63
2017-08-12T05:15:08.595Z,100458.55
2017-08-12T05:17:36.521Z,100464.67
2017-08-12T05:20:04.437Z,100467.28
2017-08-12T05:22:32.360Z,100466.04
2017-08-12T05:25:00.259Z,100458.58
2017-08-12T05:27:28.490Z,100468.59
2017-08-12T05:29:56.791Z,100471.59
2017-08-12T05:32:24.700Z,100467.23
2017-08-12T05:34:52.616Z,100479.03
2017-08-12T05:37:20.907Z,100477.22
2017-08-12T05:39:48.810Z,100482.85
2017-08-12T05:42:16.716Z,100481.92
2017-08-12T05:44:45.025Z,100485.47
2017-08-12T05:47:12.932Z,100485.58
2017-08-12T05:49:40.838Z,100493.94
2017-08-12T05:52:09.533Z,100496.53
2017-08-12T05:54:37.564Z,100504.77
2017-08-12T05:57:05.468Z,100510.91
2017-08-12T05:59:33.773Z,100506.59
2017-08-12T06:02:01.688Z,100520.53
2017-08-12T06:04:29.595Z,100509.09
2017-08-12T06:06:57.503Z,100510.86
2017-08-12T06:09:25.403Z,100517.47
2017-08-12T06:11:53.459Z,100516.56
2017-08-12T06:14:21.361Z,100523.95
2017-08-12T06:16:49.655Z,100522.42
2017-08-12T06:19:17.573Z,100530.25
2017-08-12T06:21:45.494Z,100530.14
2017-08-12T06:24:13.394Z,100534.64
2017-08-12T06:26:41.309Z,100542.55
2017-08-12T06:29:09.612Z,100557.00
2017-08-12T06:31:37.503Z,100553.61
2017-08-12T06:34:05.585Z,100551.94
2017-08-12T06:36:33.495Z,100551.02
2017-08-12T06:39:01.800Z,100550.98
2017-08-12T06:41:29.698Z,100555.84
2017-08-12T06:43:57.608Z,100550.59
2017-08-12T06:46:25.911Z,100554.64
2017-08-12T06:48:53.811Z,100559.94
2017-08-12T06:51:21.719Z,100557.41
2017-08-12T06:53:50.014Z,100568.31
2017-08-12T06:56:17.918Z,100567.97
2017-08-12T06:58:45.828Z,100572.81
2017-08-12T07:01:13.744Z,100576.77
2017-08-12T07:03:41.653Z,100575.86
2017-08-12T07:06:09.576Z,100588.12
2017-08-12T07:08:37.841Z,100586.71
2017-08-12T07:11:06.211Z,100579.37
2017-08-12T07:13:34.120Z,100593.78
2017-08-12T07:16:02.257Z,100587.15
2017-08-12T07:18:30.158Z,100591.53
2017-08-12T07:20:58.111Z,100596.45
2017-08-12T07:23:26.019Z,100604.33
2017-08-12T07:25:53.915Z,100599.50
2017-08-12T07:28:22.618Z,100603.88
2017-08-12T07:30:50.514Z,100605.65
2017-08-12T07:33:18.606Z,100602.68
2017-08-12T07:35:46.507Z,100617.99
2017-08-12T07:38:14.817Z,100618.92
2017-08-12T07:40:42.793Z,100627.63
2017-08-12T07:43:10.683Z,100624.59
2017-08-12T07:45:38.604Z,100631.58
2017-08-12T07:48:06.898Z,100629.77
2017-08-12T07:50:34.802Z,100633.69
2017-08-12T07:53:02.711Z,100641.11
2017-08-12T07:55:31.028Z,100644.12
2017-08-12T07:57:58.937Z,100645.00
2017-08-12T08:00:26.843Z,100653.41
2017-08-12T08:02:54.759Z,100655.17
2017-08-12T08:05:22.658Z,100665.67
2017-08-12T08:07:50.965Z,100666.11
2017-08-12T08:10:19.336Z,100667.87
2017-08-12T08:12:47.249Z,100678.46
2017-08-12T08:15:15.155Z,100674.95
2017-08-12T08:17:43.469Z,100687.61
2017-08-12T08:20:11.379Z,100686.80
2017-08-12T08:22:39.285Z,100687.69
2017-08-12T08:25:07.574Z,100695.11
2017-08-12T08:27:35.482Z,100690.64
2017-08-12T08:30:04.126Z,100695.48
2017-08-12T08:32:32.039Z,100697.16
2017-08-12T08:34:59.948Z,100705.43
2017-08-12T08:37:28.403Z,100704.95
2017-08-12T08:39:56.310Z,100703.23
2017-08-12T08:42:24.220Z,100705.47
2017-08-12T08:44:52.135Z,100708.56
2017-08-12T08:47:20.436Z,100719.52
2017-08-12T08:49:48.356Z,100717.37
2017-08-12T08:52:16.259Z,100721.71
2017-08-12T08:54:44.386Z,100727.03
2017-08-12T08:57:12.282Z,100730.98
2017-08-12T08:59:40.600Z,100731.83
2017-08-12T09:02:08.512Z,100733.08
2017-08-12T09:04:36.424Z,100743.66
2017-08-12T09:07:04.353Z,100731.30
2017-08-12T09:09:32.260Z,100735.18
2017-08-12T09:12:00.171Z,100735.52
2017-08-12T09:14:28.080Z,100737.48
2017-08-12T09:16:56.383Z,100743.84
2017-08-12T09:19:24.291Z,100740.83
2017-08-12T09:21:52.555Z,100751.27
2017-08-12T09:24:20.469Z,100749.02
2017-08-12T09:26:49.335Z,100751.02
2017-08-12T09:29:17.308Z,100755.21
2017-08-12T09:31:45.205Z,100761.91
2017-08-12T09:34:13.512Z,100764.86
2017-08-12T09:36:41.410Z,100757.70
2017-08-12T09:39:09.317Z,100763.33
2017-08-12T09:41:37.641Z,100753.42
2017-08-12T09:44:05.866Z,100762.18
2017-08-12T09:46:34.228Z,100761.02
2017-08-12T09:49:03.926Z,100756.73
2017-08-12T09:51:31.858Z,100769.13
2017-08-12T09:53:59.768Z,100771.45
2017-08-12T09:56:27.683Z,100775.38
2017-08-12T09:58:55.598Z,100769.25
2017-08-12T10:01:23.512Z,100771.91
2017-08-12T10:03:51.427Z,100775.72
2017-08-12T10:06:19.664Z,100777.17
2017-08-12T10:08:47.604Z,100772.56
2017-08-12T10:11:17.705Z,100780.53
2017-08-12T10:13:46.091Z,100776.02
2017-08-12T10:16:15.370Z,100777.10
2017-08-12T10:18:45.020Z,100771.33
2017-08-12T10:21:14.904Z,100777.05
2017-08-12T10:23:44.607Z,100772.66
2017-08-12T10:26:14.109Z,100773.25
2017-08-12T10:28:43.019Z,100774.70
2017-08-12T10:31:12.192Z,100777.42
2017-08-12T10:33:41.919Z,100777.86
2017-08-12T10:36:15.127Z,100772.61
2017-08-12T10:38:43.812Z,100769.22
2017-08-12T10:41:12.959Z,100769.48
2017-08-12T10:43:41.432Z,100774.00
2017-08-12T10:46:11.674Z,100774.88
2017-08-12T10:48:42.016Z,100771.34
2017-08-12T10:51:13.320Z,100779.36
2017-08-12T10:53:42.131Z,100780.71
2017-08-12T10:56:12.239Z,100784.06
2017-08-12T10:58:41.932Z,100784.64
2017-08-12T11:01:13.042Z,100781.78
2017-08-12T11:03:44.462Z,100773.94
2017-08-12T11:06:15.100Z,100779.55
2017-08-12T11:08:44.332Z,100787.18
2017-08-12T11:11:18.781Z,100782.78
2017-08-12T11:13:47.434Z,100789.09
2017-08-12T11:16:16.909Z,100781.99
2017-08-12T11:18:46.069Z,100787.44
2017-08-12T11:21:16.057Z,100782.91
2017-08-12T11:23:45.669Z,100784.22
2017-08-12T11:26:15.039Z,100791.19
2017-08-12T11:28:45.069Z,100789.63
2017-08-12T11:31:15.938Z,100792.69
2017-08-12T11:33:44.938Z,100793.66
2017-08-12T11:36:13.270Z,100795.52
2017-08-12T11:38:41.178Z,100795.03
2017-08-12T11:41:10.940Z,100795.09
2017-08-12T11:43:40.974Z,100801.41
2017-08-12T11:46:16.465Z,100795.46
2017-08-12T11:48:44.796Z,100789.74
2017-08-12T11:51:13.130Z,100790.94
2017-08-12T11:53:41.437Z,100794.43
2017-08-12T11:56:10.726Z,100792.67
2017-08-12T11:58:39.436Z,100797.00
2017-08-12T12:01:09.460Z,100796.83
2017-08-12T12:03:40.679Z,100796.56
2017-08-12T12:06:09.886Z,100795.55
2017-08-12T12:08:40.296Z,100798.66
2017-08-12T12:11:08.997Z,100787.20
2017-08-12T12:13:39.637Z,100787.73
2017-08-12T12:16:07.853Z,100795.08
2017-08-12T12:18:39.800Z,100787.09
2017-08-12T12:21:12.864Z,100794.09
2017-08-12T12:23:43.430Z,100795.80
2017-08-12T12:26:13.821Z,100790.90
2017-08-12T12:28:43.845Z,100797.06
2017-08-12T12:31:13.403Z,100788.48
2017-08-12T12:33:43.148Z,100794.47
2017-08-12T12:36:16.031Z,100794.27
2017-08-12T12:38:45.844Z,100797.05
2017-08-12T12:41:16.166Z,100793.08
2017-08-12T12:43:44.940Z,100790.78
2017-08-12T12:46:15.585Z,100785.45
2017-08-12T12:48:45.283Z,100785.26
2017-08-12T12:51:17.831Z,100786.30
2017-08-12T12:53:47.130Z,100789.78
2017-08-12T12:56:16.725Z,100786.47
2017-08-12T12:58:45.598Z,100780.20
2017-08-12T13:01:15.343Z,100784.31
2017-08-12T13:03:44.742Z,100782.48
2017-08-12T13:06:15.657Z,100785.31
2017-08-12T13:08:46.352Z,100792.92
2017-08-12T13:11:17.280Z,100789.80
2017-08-12T13:13:47.486Z,100793.38
2017-08-12T13:16:17.577Z,100786.57
2017-08-12T13:18:46.971Z,100793.77
2017-08-12T13:21:18.943Z,100801.12
2017-08-12T13:23:47.863Z,100796.37
2017-08-12T13:26:17.433Z,100799.45
2017-08-12T13:28:46.187Z,100803.72
2017-08-12T13:31:17.053Z,100805.67
2017-08-12T13:33:47.618Z,100799.83
2017-08-12T13:36:15.597Z,100803.75
2017-08-12T13:38:44.486Z,100794.10
2017-08-12T13:41:14.602Z,100793.11
2017-08-12T13:43:45.131Z,100786.20
2017-08-12T13:46:13.369Z,100800.95
2017-08-12T13:48:45.283Z,100801.30
2017-08-12T13:51:13.227Z,100801.48
2017-08-12T13:53:41.576Z,100798.32
2017-08-12T13:56:09.971Z,100800.92
2017-08-12T13:58:45.884Z,100801.58
2017-08-12T14:01:14.496Z,100797.67
2017-08-12T14:03:43.821Z,100805.23
2017-08-12T14:06:11.967Z,100801.39
2017-08-12T14:08:40.367Z,100799.52
2017-08-12T14:11:10.728Z,100802.34
2017-08-12T14:13:40.150Z,100795.52
2017-08-12T14:16:08.867Z,100793.17
2017-08-12T14:18:37.045Z,100789.98
2017-08-12T14:21:05.880Z,100796.89
2017-08-12T14:23:34.040Z,100796.27
2017-08-12T14:26:02.942Z,100801.85
2017-08-12T14:28:30.930Z,100807.16
2017-08-12T14:30:59.569Z,100807.18
2017-08-12T14:33:27.551Z,100807.73
2017-08-12T14:35:57.924Z,100805.56
2017-08-12T14:38:26.273Z,100798.10
2017-08-12T14:40:55.225Z,100803.98
2017-08-12T14:43:23.480Z,100803.04
2017-08-12T14:45:52.218Z,100802.42
2017-08-12T14:48:20.206Z,100798.78
2017-08-12T14:50:48.450Z,100798.54
2017-08-12T14:53:16.373Z,100802.80
2017-08-12T14:55:45.580Z,100798.72
2017-08-12T14:58:15.948Z,100804.55
2017-08-12T15:00:45.458Z,100811.72
2017-08-12T15:03:13.392Z,100806.66
2017-08-12T15:05:42.093Z,100819.86
2017-08-12T15:08:10.745Z,100810.19
2017-08-12T15:10:39.105Z,100812.19
2017-08-12T15:13:08.605Z,100805.84
2017-08-12T15:15:36.545Z,100812.00
2017-08-12T15:18:04.932Z,100815.80
2017-08-12T15:20:33.803Z,100807.88
2017-08-12T15:23:01.741Z,100813.48
2017-08-12T15:25:31.610Z,100813.91
2017-08-12T15:28:01.041Z,100813.00
2017-08-12T15:30:29.697Z,100812.92
2017-08-12T15:32:57.885Z,100817.30
2017-08-12T15:35:27.705Z,100825.58
2017-08-12T15:37:55.680Z,100829.49
2017-08-12T15:40:23.808Z,100826.10
2017-08-12T15:42:52.012Z,100823.70
2017-08-12T15:45:21.282Z,100829.97
2017-08-12T15:47:51.109Z,100823.42
2017-08-12T15:50:22.519Z,100817.64
2017-08-12T15:52:53.819Z,100814.16
2017-08-12T15:55:24.898Z,100807.23
2017-08-12T15:57:54.094Z,100806.27
2017-08-12T16:00:22.134Z,100801.31
2017-08-12T16:02:50.098Z,100799.48
2017-08-12T16:05:19.484Z,100803.33
2017-08-12T16:07:49.381Z,100806.02
2017-08-12T16:10:17.713Z,100808.73
2017-08-12T16:12:45.694Z,100801.11
2017-08-12T16:15:14.525Z,100796.83
2017-08-12T16:17:42.846Z,100794.33
2017-08-12T16:20:10.832Z,100794.52
2017-08-12T16:22:38.875Z,100800.02
2017-08-12T16:25:06.952Z,100798.52
2017-08-12T16:27:36.761Z,100792.63
2017-08-12T16:30:04.884Z,100798.11
2017-08-12T16:32:32.836Z,100801.61
2017-08-12T16:35:00.782Z,100793.11
2017-08-12T16:37:28.757Z,100787.72
2017-08-12T16:39:56.707Z,100784.02
2017-08-12T16:42:24.732Z,100782.31
2017-08-12T16:44:52.669Z,100785.52
2017-08-12T16:47:20.625Z,100781.86
2017-08-12T16:49:48.830Z,100774.61
2017-08-12T16:52:16.841Z,100772.34
2017-08-12T16:54:44.800Z,100777.41
2017-08-12T16:57:13.139Z,100774.19
2017-08-12T16:59:41.545Z,100769.92
2017-08-12T17:02:09.486Z,100774.30
2017-08-12T17:04:37.708Z,100782.34
2017-08-12T17:07:05.721Z,100782.06
2017-08-12T17:09:36.857Z,100777.25
2017-08-12T17:12:05.031Z,100780.18
2017-08-12T17:14:33.126Z,100779.95
2017-08-12T17:17:01.264Z,100773.58
2017-08-12T17:19:29.275Z,100777.16
2017-08-12T17:21:57.370Z,100773.55
2017-08-12T17:24:25.487Z,100779.98
2017-08-12T17:26:55.318Z,100772.28
2017-08-12T17:29:24.198Z,100778.03
2017-08-12T17:31:53.974Z,100772.14
2017-08-12T17:34:24.138Z,100769.40
2017-08-12T17:36:52.598Z,100777.79
2017-08-12T17:39:20.536Z,100774.99
2017-08-12T17:41:48.744Z,100775.38
2017-08-12T17:44:16.810Z,100774.63
2017-08-12T17:46:44.964Z,100777.07
2017-08-12T17:49:13.441Z,100777.84
2017-08-12T17:51:42.383Z,100772.75
2017-08-12T17:54:10.803Z,100770.14
2017-08-12T17:56:38.779Z,100768.59
2017-08-12T17:59:07.388Z,100766.77
2017-08-12T18:01:35.701Z,100769.42
2017-08-12T18:04:05.751Z,100767.29
2017-08-12T18:06:34.504Z,100768.37
2017-08-12T18:09:03.835Z,100768.39
2017-08-12T18:11:39.381Z,100779.06
2017-08-12T18:14:08.010Z,100766.42
2017-08-12T18:16:37.346Z,100770.39
2017-08-12T18:19:09.591Z,100776.17
2017-08-12T18:21:40.776Z,100779.58
2017-08-12T18:24:10.175Z,100782.09
2017-08-12T18:26:39.995Z,100781.12
2017-08-12T18:29:08.409Z,100784.32
2017-08-12T18:31:40.286Z,100782.81
2017-08-12T18:34:08.196Z,100791.70
2017-08-12T18:36:36.182Z,100799.48
2017-08-12T18:39:04.094Z,100798.00
2017-08-12T18:41:32.390Z,100804.48
2017-08-12T18:44:00.298Z,100803.70
2017-08-12T18:46:28.198Z,100805.84
2017-08-12T18:48:56.523Z,100811.44
2017-08-12T18:51:24.585Z,100811.59
2017-08-12T18:53:52.504Z,100821.26
2017-08-12T18:56:20.866Z,100820.09
2017-08-12T18:58:48.779Z,100832.14
2017-08-12T19:01:17.084Z,100836.66
2017-08-12T19:03:44.994Z,100842.11
2017-08-12T19:06:12.916Z,100837.97
2017-08-12T19:08:40.818Z,100850.37
2017-08-12T19:11:08.723Z,100861.33
2017-08-12T19:13:37.183Z,100868.81
2017-08-12T19:16:05.095Z,100866.45
2017-08-12T19:18:33.005Z,100878.13
2017-08-12T19:21:00.910Z,100877.56
2017-08-12T19:23:29.212Z,100880.80
2017-08-12T19:25:57.132Z,100881.73
2017-08-12T19:28:25.485Z,100876.03
2017-08-12T19:30:53.393Z,100876.94
2017-08-12T19:33:21.291Z,100875.33
2017-08-12T19:35:49.201Z,100870.11
2017-08-12T19:38:17.116Z,100874.55
2017-08-12T19:40:45.672Z,100875.02
2017-08-12T19:43:13.584Z,100874.16
2017-08-12T19:45:41.497Z,100871.52
2017-08-12T19:48:09.424Z,100866.27
2017-08-12T19:50:37.332Z,100873.66
2017-08-12T19:53:05.261Z,100872.02
2017-08-12T19:55:33.158Z,100872.91
2017-08-12T19:58:01.078Z,100880.47
2017-08-12T20:00:29.376Z,100883.98
2017-08-12T20:02:57.692Z,100882.23
2017-08-12T20:05:25.591Z,100888.81
2017-08-12T20:07:53.504Z,100880.91
2017-08-12T20:10:21.419Z,100885.31
2017-08-12T20:12:49.379Z,100880.92
2017-08-12T20:15:17.290Z,100884.05
2017-08-12T20:17:45.471Z,100880.93
2017-08-12T20:20:14.528Z,100883.11
2017-08-12T20:22:42.431Z,100887.53
2017-08-12T20:25:10.719Z,100880.48
2017-08-12T20:27:38.623Z,100871.70
2017-08-12T20:30:06.535Z,100882.69
2017-08-12T20:32:34.847Z,100879.09
2017-08-12T20:35:02.751Z,100878.61
2017-08-12T20:37:30.832Z,100883.55
2017-08-12T20:39:58.730Z,100883.48
2017-08-12T20:42:27.032Z,100875.59
2017-08-12T20:44:54.952Z,100876.12
2017-08-12T20:47:22.866Z,100873.52
2017-08-12T20:49:50.941Z,100876.59
2017-08-12T20:52:18.843Z,100883.80
2017-08-12T20:54:46.742Z,100891.66
2017-08-12T20:57:15.061Z,100888.63
2017-08-12T20:59:42.958Z,100892.09
2017-08-12T21:02:10.880Z,100895.53
2017-08-12T21:04:38.783Z,100900.36
2017-08-12T21:07:06.766Z,100892.84
2017-08-12T21:09:34.679Z,100896.36
2017-08-12T21:12:02.581Z,100893.67
2017-08-12T21:14:30.508Z,100895.44
2017-08-12T21:16:58.847Z,100893.59
2017-08-12T21:19:26.752Z,100895.41
2017-08-12T21:21:55.068Z,100903.23
2017-08-12T21:24:22.972Z,100899.24
2017-08-12T21:26:50.886Z,100898.83
2017-08-12T21:29:18.790Z,100904.47
2017-08-12T21:31:46.709Z,100910.16
2017-08-12T21:34:15.017Z,100910.16
2017-08-12T21:36:43.343Z,100904.08
2017-08-12T21:39:11.248Z,100900.53
2017-08-12T21:41:39.146Z,100905.33
2017-08-12T21:44:07.059Z,100901.05
2017-08-12T21:46:35.259Z,100901.02
2017-08-12T21:49:03.170Z,100902.32
2017-08-12T21:51:31.081Z,100898.37
2017-08-12T21:53:59.526Z,100904.51
2017-08-12T21:56:27.438Z,100911.94
2017-08-12T21:58:55.349Z,100909.27
2017-08-12T22:01:23.268Z,100912.36
2017-08-12T22:03:51.587Z,100911.94
2017-08-12T22:06:19.838Z,100918.09
2017-08-12T22:08:47.752Z,100911.47
2017-08-12T22:11:15.831Z,100914.13
2017-08-12T22:13:43.734Z,100918.05
2017-08-12T22:16:12.041Z,100914.06
2017-08-12T22:18:40.063Z,100916.25
2017-08-12T22:21:07.972Z,100915.72
2017-08-12T22:23:35.890Z,100911.42
2017-08-12T22:26:03.805Z,100917.93
2017-08-12T22:28:31.725Z,100920.16
2017-08-12T22:30:59.627Z,100920.99
2017-08-12T22:33:28.282Z,100921.77
2017-08-12T22:35:56.182Z,100925.81
2017-08-12T22:38:24.096Z,100919.58
2017-08-12T22:40:52.003Z,100916.28
2017-08-12T22:43:19.907Z,100915.92
2017-08-12T22:45:47.814Z,100919.91
2017-08-12T22:48:15.705Z,100921.34
2017-08-12T22:50:43.777Z,100926.19
2017-08-12T22:53:11.678Z,100924.02
2017-08-12T22:55:39.588Z,100921.89
2017-08-12T22:58:07.492Z,100914.45
2017-08-12T23:00:35.786Z,100913.57
2017-08-12T23:03:04.094Z,100906.64
2017-08-12T23:05:31.995Z,100914.96
2017-08-12T23:07:59.912Z,100911.49
2017-08-12T23:10:27.812Z,100913.33
2017-08-12T23:12:55.742Z,100906.29
2017-08-12T23:15:23.660Z,100904.56
2017-08-12T23:17:51.758Z,100900.63
2017-08-12T23:20:19.663Z,100910.70
2017-08-12T23:22:47.572Z,100907.20
2017-08-12T23:25:15.479Z,100904.54
2017-08-12T23:27:43.779Z,100913.75
2017-08-12T23:30:11.686Z,100906.22
2017-08-12T23:32:39.604Z,100907.11
2017-08-12T23:35:08.042Z,100914.09
2017-08-12T23:37:35.952Z,100914.14
2017-08-12T23:40:04.261Z,100910.13
2017-08-12T23:42:32.166Z,100908.75
2017-08-12T23:45:00.077Z,100904.75
2017-08-12T23:47:27.983Z,100906.90
2017-08-12T23:49:55.896Z,100907.32
2017-08-12T23:52:24.216Z,100903.31
2017-08-12T23:54:52.119Z,100905.86
2017-08-12T23:57:20.040Z,100908.03
2017-08-12T23:59:47.949Z,100908.09
